createdAt,value
2023-06-07T00:02:42.457Z,67.61
2023-06-07T00:05:17.897Z,67.43
2023-06-07T00:07:51.099Z,67.58
2023-06-07T00:10:23.990Z,67.95
2023-06-07T00:12:56.521Z,67.47
2023-06-07T00:15:30.039Z,67.17
2023-06-07T00:18:03.383Z,67.92
2023-06-07T00:20:39.256Z,67.95
2023-06-07T00:23:14.501Z,67.51
2023-06-07T00:25:47.666Z,67.64
2023-06-07T00:28:20.457Z,67.68
2023-06-07T00:30:53.367Z,67.82
2023-06-07T00:33:26.209Z,68.02
2023-06-07T00:36:00.869Z,68.18
2023-06-07T00:38:33.766Z,68.15
2023-06-07T00:41:07.187Z,68.13
2023-06-07T00:43:41.306Z,68.66
2023-06-07T00:46:15.351Z,68.50
2023-06-07T00:48:50.054Z,68.46
2023-06-07T00:51:29.205Z,67.90
2023-06-07T00:54:06.993Z,67.68
2023-06-07T00:56:40.065Z,67.46
2023-06-07T00:59:14.451Z,67.32
2023-06-07T01:01:53.623Z,67.51
2023-06-07T01:04:26.377Z,67.73
2023-06-07T01:07:04.052Z,67.81
2023-06-07T01:09:37.553Z,67.98
2023-06-07T01:12:15.154Z,67.32
2023-06-07T01:14:49.468Z,67.43
2023-06-07T01:17:26.090Z,67.63
2023-06-07T01:20:06.195Z,67.17
2023-06-07T01:22:43.975Z,67.69
2023-06-07T01:25:20.479Z,67.42
2023-06-07T01:27:55.479Z,67.74
2023-06-07T01:30:33.110Z,68.23
2023-06-07T01:33:07.894Z,68.63
2023-06-07T01:35:41.288Z,68.47
2023-06-07T01:38:16.275Z,68.14
2023-06-07T01:40:52.164Z,67.75
2023-06-07T01:43:25.446Z,67.21
2023-06-07T01:46:00.210Z,67.43
2023-06-07T01:48:33.614Z,67.30
2023-06-07T01:51:06.420Z,67.69
2023-06-07T01:53:40.123Z,68.17
2023-06-07T01:56:23.769Z,67.84
2023-06-07T01:59:06.077Z,68.44
2023-06-07T02:01:46.920Z,68.84
2023-06-07T02:04:22.634Z,68.51
2023-06-07T02:07:00.877Z,68.76
2023-06-07T02:09:40.202Z,68.45
2023-06-07T02:12:16.714Z,68.48
2023-06-07T02:14:53.920Z,68.19
2023-06-07T02:17:27.871Z,68.56
2023-06-07T02:20:01.290Z,69.13
2023-06-07T02:22:36.795Z,68.68
2023-06-07T02:25:11.145Z,68.86
2023-06-07T02:27:47.378Z,68.80
2023-06-07T02:30:20.549Z,69.51
2023-06-07T02:32:55.331Z,69.34
2023-06-07T02:35:29.147Z,69.80
2023-06-07T02:38:02.208Z,69.29
2023-06-07T02:40:36.303Z,69.55
2023-06-07T02:43:10.816Z,69.48
2023-06-07T02:45:43.688Z,69.73
2023-06-07T02:48:17.773Z,69.81
2023-06-07T02:50:51.298Z,69.30
2023-06-07T02:53:26.011Z,69.25
2023-06-07T02:55:59.404Z,69.20
2023-06-07T02:58:33.546Z,68.60
2023-06-07T03:01:09.318Z,69.14
2023-06-07T03:03:49.671Z,69.25
2023-06-07T03:06:23.089Z,69.31
2023-06-07T03:08:55.819Z,69.46
2023-06-07T03:11:31.043Z,69.53
2023-06-07T03:14:05.053Z,69.72
2023-06-07T03:16:46.462Z,69.81
2023-06-07T03:19:20.880Z,69.57
2023-06-07T03:21:55.060Z,70.28
2023-06-07T03:24:29.547Z,69.96
2023-06-07T03:27:03.041Z,70.43
2023-06-07T03:29:37.490Z,70.15
2023-06-07T03:32:10.827Z,69.68
2023-06-07T03:34:46.755Z,68.69
2023-06-07T03:37:21.701Z,68.81
2023-06-07T03:39:54.623Z,68.69
2023-06-07T03:42:28.099Z,68.17
2023-06-07T03:45:02.617Z,67.72
2023-06-07T03:47:38.806Z,68.22
2023-06-07T03:50:11.588Z,68.03
2023-06-07T03:52:45.422Z,68.09
2023-06-07T03:55:21.351Z,67.33
2023-06-07T03:57:54.398Z,67.45
2023-06-07T04:00:29.580Z,67.24
2023-06-07T04:03:05.607Z,67.45
2023-06-07T04:05:42.182Z,67.10
2023-06-07T04:08:15.005Z,67.19
2023-06-07T04:10:47.816Z,67.28
2023-06-07T04:13:20.883Z,67.48
2023-06-07T04:15:55.620Z,67.54
2023-06-07T04:18:28.146Z,66.98
2023-06-07T04:21:01.733Z,66.96
2023-06-07T04:23:36.081Z,66.90
2023-06-07T04:26:10.333Z,67.38
2023-06-07T04:28:43.591Z,66.74
2023-06-07T04:31:17.768Z,64.48
2023-06-07T04:33:52.109Z,64.26
2023-06-07T04:36:26.985Z,64.18
2023-06-07T04:39:07.014Z,63.83
2023-06-07T04:41:41.430Z,62.16
2023-06-07T04:44:23.504Z,61.27
2023-06-07T04:47:08.135Z,59.93
2023-06-07T04:49:44.059Z,58.65
2023-06-07T04:52:21.105Z,57.43
2023-06-07T04:55:02.915Z,55.68
2023-06-07T04:57:40.474Z,53.94
2023-06-07T05:00:15.965Z,53.03
2023-06-07T05:02:56.822Z,52.47
2023-06-07T05:05:30.169Z,51.81
2023-06-07T05:08:04.595Z,51.50
2023-06-07T05:10:37.717Z,50.70
2023-06-07T05:13:11.691Z,50.58
2023-06-07T05:15:46.010Z,49.97
2023-06-07T05:18:21.514Z,48.56
2023-06-07T05:20:58.065Z,48.35
2023-06-07T05:23:31.359Z,47.76
2023-06-07T05:26:05.870Z,47.29
2023-06-07T05:28:39.279Z,46.80
2023-06-07T05:31:13.285Z,46.25
2023-06-07T05:33:47.694Z,46.28
2023-06-07T05:36:22.833Z,45.31
2023-06-07T05:38:57.703Z,46.01
2023-06-07T05:41:30.275Z,45.05
2023-06-07T05:44:04.370Z,43.95
2023-06-07T05:46:37.686Z,44.61
2023-06-07T05:49:12.629Z,43.63
2023-06-07T05:51:45.900Z,43.93
2023-06-07T05:54:20.108Z,43.08
2023-06-07T05:56:54.457Z,42.59
2023-06-07T05:59:27.778Z,42.59
2023-06-07T06:02:00.965Z,42.92
2023-06-07T06:04:35.473Z,42.29
2023-06-07T06:07:10.705Z,42.44
2023-06-07T06:09:43.618Z,41.24
2023-06-07T06:12:16.581Z,41.80
2023-06-07T06:14:49.509Z,41.78
2023-06-07T06:17:22.843Z,40.75
2023-06-07T06:19:57.555Z,41.65
2023-06-07T06:22:30.576Z,40.36
2023-06-07T06:25:03.492Z,39.55
2023-06-07T06:27:39.539Z,39.18
2023-06-07T06:30:13.628Z,38.37
2023-06-07T06:32:47.314Z,39.47
2023-06-07T06:35:21.609Z,39.86
2023-06-07T06:37:54.879Z,39.13
2023-06-07T06:40:28.464Z,38.33
2023-06-07T06:43:01.555Z,38.53
2023-06-07T06:45:45.694Z,40.46
2023-06-07T06:48:18.486Z,39.15
2023-06-07T06:50:53.209Z,39.87
2023-06-07T06:53:25.817Z,39.35
2023-06-07T06:55:58.891Z,39.55
2023-06-07T06:58:36.263Z,38.97
2023-06-07T07:01:11.622Z,38.87
2023-06-07T07:03:45.112Z,37.99
2023-06-07T07:06:19.659Z,38.35
2023-06-07T07:08:52.709Z,38.45
2023-06-07T07:11:26.762Z,38.28
2023-06-07T07:13:59.418Z,39.17
2023-06-07T07:16:32.779Z,39.09
2023-06-07T07:19:06.816Z,38.99
2023-06-07T07:21:44.023Z,39.63
2023-06-07T07:24:17.264Z,38.74
2023-06-07T07:26:49.910Z,39.34
2023-06-07T07:29:23.167Z,39.01
2023-06-07T07:31:55.772Z,39.08
2023-06-07T07:34:28.933Z,39.68
2023-06-07T07:37:04.043Z,40.31
2023-06-07T07:39:37.667Z,39.37
2023-06-07T07:42:11.232Z,39.13
2023-06-07T07:44:43.991Z,39.35
2023-06-07T07:47:17.667Z,40.44
2023-06-07T07:49:51.288Z,39.54
2023-06-07T07:52:25.586Z,38.74
2023-06-07T07:54:58.195Z,38.37
2023-06-07T07:57:31.443Z,38.56
2023-06-07T08:00:06.788Z,38.07
2023-06-07T08:02:46.044Z,37.90
2023-06-07T08:05:19.008Z,38.66
2023-06-07T08:07:54.593Z,39.73
2023-06-07T08:10:27.663Z,39.17
2023-06-07T08:13:00.231Z,40.79
2023-06-07T08:15:33.630Z,39.05
2023-06-07T08:18:06.406Z,39.94
2023-06-07T08:20:39.933Z,38.62
2023-06-07T08:23:13.925Z,38.55
2023-06-07T08:25:47.091Z,38.30
2023-06-07T08:28:19.851Z,38.97
2023-06-07T08:30:52.894Z,38.73
2023-06-07T08:33:26.249Z,39.07
2023-06-07T08:35:59.084Z,38.86
2023-06-07T08:38:34.628Z,39.67
2023-06-07T08:41:07.780Z,39.30
2023-06-07T08:43:42.247Z,39.16
2023-06-07T08:46:17.002Z,40.74
2023-06-07T08:48:51.004Z,39.56
2023-06-07T08:51:25.949Z,39.13
2023-06-07T08:54:03.885Z,38.81
2023-06-07T08:56:37.205Z,38.96
2023-06-07T08:59:11.117Z,38.55
2023-06-07T09:01:44.466Z,38.93
2023-06-07T09:04:18.958Z,39.14
2023-06-07T09:06:52.535Z,39.20
2023-06-07T09:09:27.015Z,39.45
2023-06-07T09:11:59.764Z,39.09
2023-06-07T09:14:33.116Z,39.30
2023-06-07T09:17:07.697Z,39.31
2023-06-07T09:19:42.051Z,39.00
2023-06-07T09:22:18.939Z,38.66
2023-06-07T09:24:53.952Z,38.77
2023-06-07T09:27:32.995Z,38.95
2023-06-07T09:30:07.347Z,39.55
2023-06-07T09:32:41.489Z,40.51
2023-06-07T09:35:16.195Z,40.67
2023-06-07T09:37:50.070Z,40.48
2023-06-07T09:40:25.161Z,41.18
2023-06-07T09:42:59.383Z,41.08
2023-06-07T09:45:32.965Z,40.11
2023-06-07T09:48:10.798Z,39.94
2023-06-07T09:50:57.379Z,39.97
2023-06-07T09:53:49.220Z,39.13
2023-06-07T09:56:25.011Z,39.17
2023-06-07T09:59:08.368Z,39.46
2023-06-07T10:01:45.239Z,38.79
2023-06-07T10:04:18.400Z,38.73
2023-06-07T10:06:56.259Z,39.03
2023-06-07T10:09:31.127Z,39.11
2023-06-07T10:12:09.175Z,38.87
2023-06-07T10:14:45.751Z,39.46
2023-06-07T10:17:23.482Z,39.11
2023-06-07T10:20:00.840Z,38.89
2023-06-07T10:22:39.467Z,39.31
2023-06-07T10:25:17.197Z,39.30
2023-06-07T10:28:04.519Z,39.63
2023-06-07T10:30:40.904Z,38.91
2023-06-07T10:33:15.659Z,38.70
2023-06-07T10:35:49.026Z,38.88
2023-06-07T10:38:22.029Z,39.76
2023-06-07T10:40:55.221Z,39.53
2023-06-07T10:43:31.913Z,40.69
2023-06-07T10:46:18.954Z,40.75
2023-06-07T10:48:52.756Z,40.09
2023-06-07T10:52:02.865Z,40.69
2023-06-07T10:54:37.137Z,41.19
2023-06-07T10:57:10.844Z,41.28
2023-06-07T10:59:45.100Z,40.59
2023-06-07T11:02:25.016Z,40.48
2023-06-07T11:04:58.744Z,40.54
2023-06-07T11:07:32.996Z,40.81
2023-06-07T11:10:35.580Z,41.46
2023-06-07T11:13:08.639Z,40.33
2023-06-07T11:15:43.182Z,39.56
2023-06-07T11:18:16.808Z,40.17
2023-06-07T11:20:53.116Z,39.88
2023-06-07T11:23:30.680Z,39.49
2023-06-07T11:26:11.559Z,39.73
2023-06-07T11:28:44.547Z,39.23
2023-06-07T11:31:19.236Z,39.05
2023-06-07T11:33:52.462Z,38.69
2023-06-07T11:36:25.036Z,38.66
2023-06-07T11:39:00.394Z,38.73
2023-06-07T11:41:33.525Z,38.48
2023-06-07T11:44:08.073Z,38.24
2023-06-07T11:46:43.213Z,38.32
2023-06-07T11:49:16.229Z,38.30
2023-06-07T11:51:52.665Z,38.43
2023-06-07T11:54:26.585Z,39.06
2023-06-07T11:57:00.316Z,39.07
2023-06-07T11:59:33.231Z,39.07
2023-06-07T12:02:10.097Z,38.82
2023-06-07T12:04:43.743Z,39.23
2023-06-07T12:07:33.002Z,39.72
2023-06-07T12:10:07.234Z,38.92
2023-06-07T12:12:41.255Z,39.16
2023-06-07T12:15:17.395Z,39.16
2023-06-07T12:17:52.859Z,39.48
2023-06-07T12:20:26.729Z,38.93
2023-06-07T12:23:05.834Z,39.28
2023-06-07T12:25:39.368Z,39.32
2023-06-07T12:28:16.124Z,39.30
2023-06-07T12:30:48.863Z,38.88
2023-06-07T12:33:27.637Z,39.14
2023-06-07T12:36:00.334Z,40.14
2023-06-07T12:38:33.627Z,39.19
2023-06-07T12:41:06.236Z,39.02
2023-06-07T12:43:39.398Z,39.24
2023-06-07T12:46:12.171Z,39.40
2023-06-07T12:48:46.927Z,38.16
2023-06-07T12:51:19.665Z,38.33
2023-06-07T12:53:53.225Z,38.06
2023-06-07T12:56:26.736Z,38.28
2023-06-07T12:59:01.336Z,38.59
2023-06-07T13:01:36.352Z,38.93
2023-06-07T13:04:10.429Z,38.42
2023-06-07T13:06:44.179Z,38.42
2023-06-07T13:09:18.228Z,38.19
2023-06-07T13:11:51.039Z,38.08
2023-06-07T13:14:24.015Z,37.83
2023-06-07T13:16:56.911Z,38.26
2023-06-07T13:19:31.356Z,38.59
2023-06-07T13:22:04.762Z,38.32
2023-06-07T13:24:37.656Z,38.06
2023-06-07T13:27:10.620Z,38.31
2023-06-07T13:29:43.894Z,38.44
2023-06-07T13:32:17.076Z,38.37
2023-06-07T13:34:51.789Z,38.42
2023-06-07T13:37:24.244Z,38.87
2023-06-07T13:39:59.323Z,38.95
2023-06-07T13:42:31.850Z,38.82
2023-06-07T13:45:06.125Z,38.52
2023-06-07T13:47:39.365Z,38.29
2023-06-07T13:50:13.846Z,38.97
2023-06-07T13:52:46.327Z,39.57
2023-06-07T13:55:19.552Z,40.25
2023-06-07T13:57:54.430Z,38.90
2023-06-07T14:00:27.705Z,38.51
2023-06-07T14:03:01.113Z,38.36
2023-06-07T14:05:35.879Z,38.90
2023-06-07T14:08:09.241Z,39.20
2023-06-07T14:10:42.482Z,38.63
2023-06-07T14:13:19.289Z,38.37
2023-06-07T14:15:53.290Z,38.30
2023-06-07T14:18:26.143Z,38.72
2023-06-07T14:21:00.975Z,38.59
2023-06-07T14:23:34.386Z,38.35
2023-06-07T14:26:07.750Z,38.34
2023-06-07T14:28:41.318Z,38.98
2023-06-07T14:31:14.153Z,38.96
2023-06-07T14:33:47.418Z,38.79
2023-06-07T14:36:21.975Z,38.96
2023-06-07T14:38:55.260Z,38.72
2023-06-07T14:41:28.210Z,38.57
2023-06-07T14:44:01.466Z,39.17
2023-06-07T14:46:34.095Z,38.95
2023-06-07T14:49:07.157Z,39.08
2023-06-07T14:51:41.188Z,39.33
2023-06-07T14:54:14.476Z,39.42
2023-06-07T14:56:47.420Z,39.51
2023-06-07T14:59:20.264Z,39.73
2023-06-07T15:01:53.537Z,39.65
2023-06-07T15:04:26.456Z,39.58
2023-06-07T15:07:00.366Z,39.65
2023-06-07T15:09:33.511Z,39.52
2023-06-07T15:12:07.034Z,40.01
2023-06-07T15:14:39.891Z,39.58
2023-06-07T15:17:12.649Z,39.53
2023-06-07T15:19:46.337Z,39.39
2023-06-07T15:22:20.752Z,39.33
2023-06-07T15:24:53.531Z,39.47
2023-06-07T15:27:26.824Z,39.69
2023-06-07T15:29:59.928Z,39.52
2023-06-07T15:32:33.168Z,39.28
2023-06-07T15:35:06.576Z,39.33
2023-06-07T15:37:41.671Z,39.62
2023-06-07T15:40:14.590Z,39.22
2023-06-07T15:42:47.498Z,39.25
2023-06-07T15:45:20.759Z,39.36
2023-06-07T15:48:01.449Z,39.39
2023-06-07T15:50:34.549Z,39.47
2023-06-07T15:53:09.383Z,39.16
2023-06-07T15:55:42.738Z,39.28
2023-06-07T15:58:15.364Z,39.63
2023-06-07T16:00:49.911Z,39.54
2023-06-07T16:03:22.642Z,39.40
2023-06-07T16:05:55.550Z,39.73
2023-06-07T16:08:29.488Z,40.09
2023-06-07T16:11:02.091Z,39.95
2023-06-07T16:13:35.012Z,40.37
2023-06-07T16:16:08.000Z,40.13
2023-06-07T16:18:41.237Z,40.14
2023-06-07T16:21:14.639Z,40.27
2023-06-07T16:23:49.614Z,40.09
2023-06-07T16:26:23.620Z,40.38
2023-06-07T16:28:56.461Z,40.33
2023-06-07T16:31:31.844Z,40.40
2023-06-07T16:34:05.012Z,40.85
2023-06-07T16:36:39.264Z,40.71
2023-06-07T16:39:13.490Z,40.84
2023-06-07T16:41:46.675Z,40.92
2023-06-07T16:44:19.470Z,40.86
2023-06-07T16:46:57.116Z,41.29
2023-06-07T16:49:33.007Z,40.98
2023-06-07T16:52:06.279Z,40.99
2023-06-07T16:54:40.224Z,41.29
2023-06-07T16:57:12.992Z,41.19
2023-06-07T16:59:46.238Z,41.45
2023-06-07T17:02:18.872Z,41.56
2023-06-07T17:04:52.138Z,41.70
2023-06-07T17:07:24.867Z,41.62
2023-06-07T17:10:12.872Z,42.20
2023-06-07T17:12:46.056Z,42.45
2023-06-07T17:15:19.856Z,42.46
2023-06-07T17:17:52.380Z,42.75
2023-06-07T17:20:25.672Z,42.83
2023-06-07T17:22:59.510Z,42.66
2023-06-07T17:25:35.572Z,43.16
2023-06-07T17:28:08.623Z,43.31
2023-06-07T17:30:41.791Z,43.14
2023-06-07T17:33:18.749Z,43.56
2023-06-07T17:35:53.734Z,43.70
2023-06-07T17:38:26.569Z,43.89
2023-06-07T17:41:00.945Z,43.83
2023-06-07T17:43:33.457Z,44.26
2023-06-07T17:46:06.500Z,44.27
2023-06-07T17:48:39.087Z,44.74
2023-06-07T17:51:12.365Z,45.17
2023-06-07T17:53:46.514Z,45.00
2023-06-07T17:56:23.130Z,44.99
2023-06-07T17:58:56.987Z,45.46
2023-06-07T18:01:30.086Z,45.76
2023-06-07T18:04:07.027Z,46.38
2023-06-07T18:06:40.797Z,47.34
2023-06-07T18:09:13.869Z,46.78
2023-06-07T18:11:48.103Z,47.42
2023-06-07T18:14:23.611Z,47.27
2023-06-07T18:16:56.344Z,47.91
2023-06-07T18:19:29.397Z,48.43
2023-06-07T18:22:02.875Z,49.29
2023-06-07T18:24:35.673Z,49.52
2023-06-07T18:27:09.944Z,50.00
2023-06-07T18:29:43.021Z,50.54
2023-06-07T18:32:16.143Z,51.12
2023-06-07T18:34:51.856Z,51.37
2023-06-07T18:37:24.530Z,51.68
2023-06-07T18:39:57.283Z,52.00
2023-06-07T18:42:31.509Z,53.01
2023-06-07T18:45:04.862Z,52.98
2023-06-07T18:47:41.128Z,53.52
2023-06-07T18:50:13.951Z,53.81
2023-06-07T18:52:47.139Z,53.84
2023-06-07T18:55:20.012Z,54.42
2023-06-07T18:57:54.752Z,54.42
2023-06-07T19:00:27.721Z,54.77
2023-06-07T19:03:00.477Z,55.09
2023-06-07T19:05:33.400Z,55.00
2023-06-07T19:08:09.348Z,55.43
2023-06-07T19:11:08.154Z,55.12
2023-06-07T19:13:42.892Z,55.65
2023-06-07T19:16:15.475Z,55.61
2023-06-07T19:18:49.020Z,55.89
2023-06-07T19:21:21.539Z,56.04
2023-06-07T19:23:54.459Z,56.56
2023-06-07T19:26:29.549Z,56.92
2023-06-07T19:29:04.658Z,57.35
2023-06-07T19:31:37.681Z,57.68
2023-06-07T19:34:11.530Z,57.63
2023-06-07T19:36:44.859Z,57.61
2023-06-07T19:39:17.692Z,57.75
2023-06-07T19:41:53.831Z,57.95
2023-06-07T19:44:30.281Z,57.96
2023-06-07T19:47:05.029Z,58.61
2023-06-07T19:49:39.201Z,58.82
2023-06-07T19:52:11.922Z,59.14
2023-06-07T19:54:44.820Z,59.34
2023-06-07T19:57:17.860Z,59.07
2023-06-07T19:59:52.615Z,59.35
2023-06-07T20:02:29.094Z,59.20
2023-06-07T20:05:02.209Z,59.28
2023-06-07T20:07:36.724Z,59.48
2023-06-07T20:10:10.646Z,59.74
2023-06-07T20:12:45.636Z,59.91
2023-06-07T20:15:21.053Z,60.31
2023-06-07T20:17:54.548Z,60.11
2023-06-07T20:20:27.297Z,60.37
2023-06-07T20:23:00.641Z,60.11
2023-06-07T20:25:33.267Z,60.19
2023-06-07T20:28:06.460Z,60.15
2023-06-07T20:30:43.568Z,60.52
2023-06-07T20:33:18.855Z,60.49
2023-06-07T20:35:54.039Z,61.01
2023-06-07T20:38:27.079Z,61.16
2023-06-07T20:41:00.758Z,61.50
2023-06-07T20:43:33.332Z,61.27
2023-06-07T20:46:07.999Z,61.41
2023-06-07T20:48:40.700Z,61.65
2023-06-07T20:51:17.907Z,61.89
2023-06-07T20:53:56.431Z,61.85
2023-06-07T20:56:29.900Z,62.36
2023-06-07T20:59:02.921Z,62.43
2023-06-07T21:01:38.330Z,62.30
2023-06-07T21:04:11.592Z,62.91
2023-06-07T21:06:44.201Z,62.84
2023-06-07T21:09:17.407Z,62.68
2023-06-07T21:11:50.126Z,62.49
2023-06-07T21:14:23.281Z,62.51
2023-06-07T21:16:57.623Z,62.48
2023-06-07T21:19:31.133Z,62.45
2023-06-07T21:22:03.829Z,62.63
2023-06-07T21:24:36.985Z,62.79
2023-06-07T21:27:09.506Z,62.66
2023-06-07T21:29:42.359Z,63.15
2023-06-07T21:32:16.648Z,63.22
2023-06-07T21:34:49.387Z,63.37
2023-06-07T21:37:22.319Z,62.99
2023-06-07T21:39:56.411Z,63.77
2023-06-07T21:42:28.971Z,63.65
2023-06-07T21:45:02.065Z,64.01
2023-06-07T21:47:39.612Z,63.39
2023-06-07T21:50:13.035Z,63.80
2023-06-07T21:52:46.081Z,63.64
2023-06-07T21:55:18.871Z,63.59
2023-06-07T21:57:54.680Z,63.37
2023-06-07T22:00:27.897Z,63.31
2023-06-07T22:03:02.368Z,63.28
2023-06-07T22:05:35.347Z,63.75
2023-06-07T22:08:08.228Z,63.85
2023-06-07T22:10:42.923Z,63.95
2023-06-07T22:13:21.933Z,64.30
2023-06-07T22:15:58.734Z,64.37
2023-06-07T22:18:36.604Z,64.46
2023-06-07T22:21:09.811Z,64.71
2023-06-07T22:23:42.499Z,64.65
2023-06-07T22:26:16.727Z,64.96
2023-06-07T22:28:49.464Z,64.49
2023-06-07T22:31:22.354Z,64.71
2023-06-07T22:33:56.750Z,65.04
2023-06-07T22:36:33.399Z,64.68
2023-06-07T22:39:09.242Z,63.31
2023-06-07T22:42:01.277Z,62.89
2023-06-07T22:44:33.991Z,64.40
2023-06-07T22:47:07.856Z,64.89
2023-06-07T22:49:44.380Z,65.13
2023-06-07T22:52:17.931Z,64.89
2023-06-07T22:54:51.837Z,65.12
2023-06-07T22:57:24.934Z,65.48
2023-06-07T22:59:57.463Z,65.40
2023-06-07T23:02:32.397Z,65.15
2023-06-07T23:05:08.350Z,64.44
2023-06-07T23:07:41.895Z,64.54
2023-06-07T23:10:14.738Z,64.89
2023-06-07T23:12:47.471Z,64.66
2023-06-07T23:15:20.830Z,64.81
2023-06-07T23:17:54.329Z,65.03
2023-06-07T23:20:33.290Z,65.49
2023-06-07T23:23:06.373Z,65.03
2023-06-07T23:25:39.174Z,65.58
2023-06-07T23:28:12.739Z,65.16
2023-06-07T23:30:45.242Z,65.63
2023-06-07T23:33:18.753Z,65.32
2023-06-07T23:35:53.214Z,65.55
2023-06-07T23:38:25.715Z,65.82
2023-06-07T23:40:58.987Z,66.22
2023-06-07T23:43:32.141Z,65.95
2023-06-07T23:46:06.129Z,65.50
2023-06-07T23:48:40.477Z,65.81
2023-06-07T23:51:14.334Z,66.24
2023-06-07T23:53:47.699Z,65.74
2023-06-07T23:56:20.335Z,65.74
2023-06-07T23:58:53.278Z,65.79
